Wakefield, MI (49968)

10:16 AM CDT on June 29, 2017 (GMT -0500)
Sunday Lake | | Change Station

Elev 1600 ft 46.48 °N, 89.95 °W | Updated 5 seconds ago

Overcast
Overcast
57.6 °F
Feels Like 57.6 °F
N
3.4
Wind Variable Wind from East
Gusts 3.4 mph

Today
High -- | Low -- °F
--% Chance of Precip.
Yesterday
High -- | Low -- °F
Precip. -- in
Pressure 29.61 in
Visibility 10.0 miles
Clouds Overcast 800 ft
Dew Point 57 °F
Humidity 98%
Rainfall 0.12 in
Snow Depth Not available.
5:10 AM 8:56 PM
Waxing Crescent, 36% visible
METAR KIWD 291456Z AUTO 26015G21KT 10SM OVC008 14/13 A2961 RMK AO2 SLP026 6//// T01440128 51014 PNO $
Pressure 29.61 in
Visibility 10.0 miles
Clouds Overcast 800 ft
Dew Point 57 °F
Humidity 98%
Rainfall 0.12 in
Snow Depth Not available.
5:10 AM 8:56 PM
Waxing Crescent, 36% visible
METAR KIWD 291456Z AUTO 26015G21KT 10SM OVC008 14/13 A2961 RMK AO2 SLP026 6//// T01440128 51014 PNO $

Get Severe Weather Alerts

Thanks for signing up!

Be on the lookout for a verification email in your inbox.

You'll start receiving the daily forecast at 6 AM.

×

10-Day Weather Forecast

Almanac

Astronomy

Jun. 29, 2017 Rise Set
Actual Time
Civil Twilight
Nautical Twilight
Astronomical Twilight
Moon
Length of Visible Light
Length of Day
Tomorrow will be .
, % of the Moon is Illuminated

Today's Extremes

State Highs State Lows

Community

WunderPhotos

Category 6

Welcome to Category 6. This is the collective home for Weather Underground's featured writeups by Dr. Jeff Masters (right), Bob Henson (left), Chris Burt, and other regular contributors.

Nearby

Air Quality

  Air Quality AQ Index Pollutant
Not available.

Snow Depth

Station Depth Elevation

Earthquake Activity

City Distance Mag. Time & Date
Minimum magnitude displayed is 2.5.

Coastal Water Temperatures

Place Temperature

Stations

Nearby Weather Stations

Station Location Temp. Windchill Dew Point Humidity Wind Precip. Elev Updated Type
                   

Watches & Warnings

There are currently no watches in effect.